Mohicanville, Ohio
Current Conditions -  °F | °C
As of 10:56 AM on Friday 31 Oct 2014 (Local Time) from KBJJ Reporting Station
Overcast Overcast  
Wind Chill: 43°   Ceiling: 4200
Heat Index: 47°   Visibility: 10mi
Dew Point: 36°   Wind: 9mph
Humidity: 66%   Direction: 220°SW
Pressure: 29.92"   Gusts: NA
Location:  40.7919°N, 82.1797°W
Report Text: KBJJ 311456Z AUTO 22008KT 10SM BKN042 OVC050 08/02 A2992 RMK AO2 SLP136 T00830022 58008 TSNO
Loading
Personal Weather Stations






























Interactive Weather Map
Tropical Storm Tracking
New forecast layout! Learn more

10-Day Weather Forecast

Advertisements
Track Severe Weather on mobile